createdAt,value
2022-12-25T00:00:04.720Z,969.42
2022-12-25T00:00:32.724Z,969.32
2022-12-25T00:01:04.658Z,969.52
2022-12-25T00:01:34.463Z,969.52
2022-12-25T00:02:06.061Z,969.32
2022-12-25T00:02:36.622Z,969.32
2022-12-25T00:03:08.543Z,969.62
2022-12-25T00:03:39.563Z,969.62
2022-12-25T00:04:10.188Z,969.42
2022-12-25T00:04:41.503Z,969.42
2022-12-25T00:05:12.855Z,969.52
2022-12-25T00:05:42.906Z,969.52
2022-12-25T00:06:17.148Z,969.42
2022-12-25T00:06:44.603Z,969.42
2022-12-25T00:07:16.085Z,969.32
2022-12-25T00:07:46.431Z,969.32
2022-12-25T00:08:18.205Z,969.62
2022-12-25T00:08:48.431Z,969.62
2022-12-25T00:09:20.188Z,969.52
2022-12-25T00:09:51.582Z,969.52
2022-12-25T00:10:24.021Z,969.42
2022-12-25T00:10:52.508Z,969.42
2022-12-25T00:11:23.646Z,969.62
2022-12-25T00:11:55.024Z,969.62
2022-12-25T00:12:25.419Z,969.52
2022-12-25T00:12:57.897Z,969.52
2022-12-25T00:13:27.462Z,969.42
2022-12-25T00:13:59.088Z,969.42
2022-12-25T00:14:29.520Z,969.72
2022-12-25T00:15:03.425Z,969.72
2022-12-25T00:15:31.526Z,969.52
2022-12-25T00:16:03.178Z,969.52
2022-12-25T00:16:33.872Z,969.42
2022-12-25T00:17:05.256Z,969.62
2022-12-25T00:17:35.509Z,969.62
2022-12-25T00:18:07.170Z,969.52
2022-12-25T00:18:37.461Z,969.52
2022-12-25T00:19:09.189Z,969.52
2022-12-25T00:19:39.438Z,969.52
2022-12-25T00:20:12.653Z,969.32
2022-12-25T00:20:41.500Z,969.32
2022-12-25T00:21:13.121Z,969.52
2022-12-25T00:21:43.637Z,969.52
2022-12-25T00:22:15.176Z,969.52
2022-12-25T00:22:45.524Z,969.52
2022-12-25T00:23:17.188Z,969.42
2022-12-25T00:23:48.052Z,969.42
2022-12-25T00:24:19.059Z,969.11
2022-12-25T00:24:49.452Z,969.11
2022-12-25T00:25:22.560Z,969.42
2022-12-25T00:25:51.487Z,969.42
2022-12-25T00:26:23.930Z,969.32
2022-12-25T00:26:53.783Z,969.32
2022-12-25T00:27:25.511Z,969.52
2022-12-25T00:27:55.612Z,969.52
2022-12-25T00:28:27.173Z,969.42
2022-12-25T00:28:57.438Z,969.42
2022-12-25T00:29:29.093Z,969.42
2022-12-25T00:29:59.475Z,969.42
2022-12-25T00:30:32.808Z,969.32
2022-12-25T00:31:01.441Z,969.32
2022-12-25T00:31:33.270Z,969.32
2022-12-25T00:32:03.548Z,969.22
2022-12-25T00:32:35.041Z,969.22
2022-12-25T00:33:05.525Z,969.42
2022-12-25T00:33:37.198Z,969.42
2022-12-25T00:34:07.446Z,969.32
2022-12-25T00:34:39.051Z,969.32
2022-12-25T00:35:09.809Z,969.32
2022-12-25T00:35:43.201Z,969.32
2022-12-25T00:36:11.535Z,969.52
2022-12-25T00:36:43.110Z,969.52
2022-12-25T00:37:14.358Z,969.42
2022-12-25T00:37:45.221Z,969.42
2022-12-25T00:38:15.479Z,969.52
2022-12-25T00:38:47.222Z,969.52
2022-12-25T00:39:17.566Z,969.32
2022-12-25T00:39:49.789Z,969.32
2022-12-25T00:40:19.885Z,969.22
2022-12-25T00:40:52.064Z,969.22
2022-12-25T00:41:21.461Z,969.01
2022-12-25T00:41:53.080Z,969.01
2022-12-25T00:42:23.481Z,969.42
2022-12-25T00:42:55.167Z,969.42
2022-12-25T00:43:25.451Z,969.42
2022-12-25T00:43:57.383Z,969.42
2022-12-25T00:44:27.913Z,969.52
2022-12-25T00:44:59.044Z,969.52
2022-12-25T00:45:30.313Z,969.52
2022-12-25T00:46:02.220Z,969.52
2022-12-25T00:46:31.570Z,969.72
2022-12-25T00:47:03.382Z,969.72
2022-12-25T00:47:33.761Z,969.42
2022-12-25T00:48:05.143Z,969.52
2022-12-25T00:48:35.469Z,969.52
2022-12-25T00:49:07.065Z,969.83
2022-12-25T00:49:37.467Z,969.83
2022-12-25T00:50:09.721Z,969.62
2022-12-25T00:50:40.043Z,969.62
2022-12-25T00:51:12.270Z,969.62
2022-12-25T00:51:41.440Z,969.62
2022-12-25T00:52:13.192Z,969.52
2022-12-25T00:52:43.431Z,969.52
2022-12-25T00:53:15.400Z,969.72
2022-12-25T00:53:46.141Z,969.72
2022-12-25T00:54:17.031Z,969.72
2022-12-25T00:54:55.346Z,969.72
2022-12-25T00:55:19.056Z,969.62
2022-12-25T00:55:50.919Z,969.62
2022-12-25T00:56:21.433Z,969.62
2022-12-25T00:56:52.498Z,969.62
2022-12-25T00:57:22.972Z,969.62
2022-12-25T00:57:54.515Z,969.62
2022-12-25T00:58:24.528Z,969.62
2022-12-25T00:58:56.212Z,969.62
2022-12-25T00:59:26.596Z,969.42
2022-12-25T00:59:58.064Z,969.42
2022-12-25T01:00:29.821Z,969.42
2022-12-25T01:01:00.254Z,969.42
2022-12-25T01:01:31.640Z,969.32
2022-12-25T01:02:02.274Z,969.32
2022-12-25T01:02:32.796Z,969.22
2022-12-25T01:03:04.253Z,969.72
2022-12-25T01:03:34.431Z,969.72
2022-12-25T01:04:06.416Z,969.42
2022-12-25T01:04:36.491Z,969.42
2022-12-25T01:05:08.788Z,969.62
2022-12-25T01:05:38.532Z,969.62
2022-12-25T01:06:10.072Z,969.32
2022-12-25T01:06:42.114Z,969.32
2022-12-25T01:07:12.350Z,969.62
2022-12-25T01:07:42.716Z,969.62
2022-12-25T01:08:17.041Z,969.52
2022-12-25T01:08:44.478Z,969.52
2022-12-25T01:09:16.675Z,969.42
2022-12-25T01:09:46.626Z,969.42
2022-12-25T01:10:19.045Z,969.42
2022-12-25T01:10:48.842Z,969.42
2022-12-25T01:11:20.168Z,969.52
2022-12-25T01:11:51.542Z,969.52
2022-12-25T01:12:22.139Z,969.93
2022-12-25T01:12:52.556Z,969.93
2022-12-25T01:13:24.042Z,969.52
2022-12-25T01:13:54.465Z,969.52
2022-12-25T01:14:26.289Z,969.62
2022-12-25T01:14:56.554Z,969.62
2022-12-25T01:15:29.163Z,969.42
2022-12-25T01:15:58.566Z,969.42
2022-12-25T01:16:30.331Z,969.32
2022-12-25T01:17:01.583Z,969.32
2022-12-25T01:17:32.646Z,969.42
2022-12-25T01:18:07.618Z,969.42
2022-12-25T01:18:34.382Z,969.32
2022-12-25T01:19:04.524Z,969.32
2022-12-25T01:19:36.238Z,969.32
2022-12-25T01:20:06.885Z,969.32
2022-12-25T01:20:39.975Z,969.32
2022-12-25T01:21:08.751Z,969.42
2022-12-25T01:21:40.156Z,969.42
2022-12-25T01:22:11.468Z,969.42
2022-12-25T01:22:42.189Z,969.42
2022-12-25T01:23:12.631Z,969.52
2022-12-25T01:23:44.066Z,969.52
2022-12-25T01:24:15.317Z,969.52
2022-12-25T01:24:48.308Z,969.52
2022-12-25T01:25:17.093Z,969.52
2022-12-25T01:25:47.433Z,969.52
2022-12-25T01:26:19.031Z,969.52
2022-12-25T01:26:49.490Z,969.52
2022-12-25T01:27:22.311Z,969.52
2022-12-25T01:27:51.430Z,969.52
2022-12-25T01:28:23.034Z,969.22
2022-12-25T01:28:53.725Z,969.22
2022-12-25T01:29:25.744Z,969.52
2022-12-25T01:29:55.529Z,969.52
2022-12-25T01:30:27.951Z,969.42
2022-12-25T01:30:58.659Z,969.42
2022-12-25T01:31:29.062Z,969.62
2022-12-25T01:31:59.562Z,969.62
2022-12-25T01:32:32.245Z,969.42
2022-12-25T01:33:01.475Z,969.42
2022-12-25T01:33:33.022Z,969.62
2022-12-25T01:34:03.538Z,969.42
2022-12-25T01:34:35.117Z,969.42
2022-12-25T01:35:06.393Z,969.42
2022-12-25T01:35:37.026Z,969.42
2022-12-25T01:36:07.449Z,969.42
2022-12-25T01:36:39.148Z,969.42
2022-12-25T01:37:09.740Z,969.42
2022-12-25T01:37:42.479Z,969.42
2022-12-25T01:38:11.596Z,969.52
2022-12-25T01:38:43.173Z,969.52
2022-12-25T01:39:13.743Z,969.22
2022-12-25T01:39:45.164Z,969.22
2022-12-25T01:40:15.961Z,969.42
2022-12-25T01:40:47.827Z,969.42
2022-12-25T01:41:17.449Z,969.42
2022-12-25T01:41:49.131Z,969.42
2022-12-25T01:42:19.455Z,969.11
2022-12-25T01:42:52.023Z,969.11
2022-12-25T01:43:21.649Z,969.42
2022-12-25T01:43:53.038Z,969.42
2022-12-25T01:44:24.210Z,969.42
2022-12-25T01:44:55.064Z,969.42
2022-12-25T01:45:26.325Z,969.52
2022-12-25T01:45:57.692Z,969.52
2022-12-25T01:46:27.435Z,969.32
2022-12-25T01:46:59.023Z,969.32
2022-12-25T01:47:29.512Z,969.52
2022-12-25T01:48:02.085Z,969.52
2022-12-25T01:48:31.771Z,969.52
2022-12-25T01:49:03.116Z,969.52
2022-12-25T01:49:34.123Z,969.42
2022-12-25T01:50:05.822Z,969.42
2022-12-25T01:50:35.542Z,969.42
2022-12-25T01:51:07.597Z,969.62
2022-12-25T01:51:37.429Z,969.62
2022-12-25T01:52:09.197Z,969.52
2022-12-25T01:52:39.478Z,969.52
2022-12-25T01:53:12.378Z,969.52
2022-12-25T01:53:41.471Z,969.52
2022-12-25T01:54:13.172Z,969.72
2022-12-25T01:54:43.528Z,969.72
2022-12-25T01:55:15.294Z,969.32
2022-12-25T01:55:45.736Z,969.32
2022-12-25T01:56:17.158Z,969.52
2022-12-25T01:56:47.460Z,969.52
2022-12-25T01:57:19.090Z,969.62
2022-12-25T01:57:50.076Z,969.62
2022-12-25T01:58:22.255Z,969.52
2022-12-25T01:58:51.629Z,969.52
2022-12-25T01:59:23.149Z,969.52
2022-12-25T01:59:53.864Z,969.52
2022-12-25T02:00:27.355Z,969.72
2022-12-25T02:00:55.764Z,969.72
2022-12-25T02:01:27.274Z,969.52
2022-12-25T02:01:58.029Z,969.52
2022-12-25T02:02:29.149Z,969.52
2022-12-25T02:02:59.721Z,969.52
2022-12-25T02:03:32.765Z,969.42
2022-12-25T02:04:01.487Z,969.42
2022-12-25T02:04:33.751Z,969.42
2022-12-25T02:05:04.015Z,969.52
2022-12-25T02:05:35.670Z,969.52
2022-12-25T02:06:05.451Z,969.52
2022-12-25T02:06:37.106Z,969.52
2022-12-25T02:07:07.643Z,969.62
2022-12-25T02:07:39.073Z,969.62
2022-12-25T02:08:09.483Z,969.72
2022-12-25T02:08:42.280Z,969.72
2022-12-25T02:09:11.442Z,969.52
2022-12-25T02:09:43.035Z,969.52
2022-12-25T02:10:14.193Z,969.32
2022-12-25T02:10:46.951Z,969.32
2022-12-25T02:11:16.185Z,969.42
2022-12-25T02:11:46.500Z,969.42
2022-12-25T02:12:18.160Z,969.62
2022-12-25T02:12:48.493Z,969.62
2022-12-25T02:13:20.225Z,969.52
2022-12-25T02:13:52.234Z,969.52
2022-12-25T02:14:22.270Z,969.42
2022-12-25T02:14:52.460Z,969.42
2022-12-25T02:15:24.936Z,969.42
2022-12-25T02:15:54.546Z,969.42
2022-12-25T02:16:26.206Z,969.42
2022-12-25T02:16:58.831Z,969.42
2022-12-25T02:17:28.389Z,969.42
2022-12-25T02:17:59.162Z,969.42
2022-12-25T02:18:30.167Z,969.52
2022-12-25T02:19:01.952Z,969.52
2022-12-25T02:19:32.041Z,969.62
2022-12-25T02:20:03.269Z,969.62
2022-12-25T02:20:41.482Z,969.62
2022-12-25T02:21:04.440Z,969.42
2022-12-25T02:21:36.394Z,969.42
2022-12-25T02:22:06.623Z,969.32
2022-12-25T02:22:38.184Z,969.32
2022-12-25T02:23:08.593Z,969.42
2022-12-25T02:23:40.092Z,969.42
2022-12-25T02:24:11.472Z,969.42
2022-12-25T02:24:42.995Z,969.42
2022-12-25T02:25:13.227Z,969.22
2022-12-25T02:25:44.034Z,969.22
2022-12-25T02:26:14.606Z,969.11
2022-12-25T02:26:46.331Z,969.11
2022-12-25T02:27:16.432Z,969.42
2022-12-25T02:27:48.064Z,969.42
2022-12-25T02:28:18.454Z,969.32
2022-12-25T02:28:50.149Z,969.32
2022-12-25T02:29:21.540Z,969.22
2022-12-25T02:29:52.212Z,969.22
2022-12-25T02:30:23.361Z,969.42
2022-12-25T02:30:54.536Z,969.42
2022-12-25T02:31:25.335Z,969.32
2022-12-25T02:31:56.242Z,969.32
2022-12-25T02:32:26.643Z,969.32
2022-12-25T02:32:58.716Z,969.32
2022-12-25T02:33:28.427Z,969.32
2022-12-25T02:34:00.178Z,969.32
2022-12-25T02:34:31.464Z,969.32
2022-12-25T02:35:02.765Z,969.32
2022-12-25T02:35:32.919Z,969.22
2022-12-25T02:36:04.229Z,969.32
2022-12-25T02:36:34.441Z,969.32
2022-12-25T02:37:06.116Z,969.32
2022-12-25T02:37:36.639Z,969.32
2022-12-25T02:38:08.909Z,969.32
2022-12-25T02:38:38.540Z,969.32
2022-12-25T02:39:10.085Z,969.32
2022-12-25T02:39:41.432Z,969.32
2022-12-25T02:40:12.765Z,969.42
2022-12-25T02:40:47.210Z,969.42
2022-12-25T02:41:15.623Z,969.42
2022-12-25T02:41:44.509Z,969.42
2022-12-25T02:42:16.164Z,969.32
2022-12-25T02:42:46.425Z,969.32
2022-12-25T02:43:18.233Z,969.52
2022-12-25T02:43:48.599Z,969.52
2022-12-25T02:44:20.116Z,969.42
2022-12-25T02:44:51.818Z,969.42
2022-12-25T02:45:23.061Z,969.52
2022-12-25T02:45:52.593Z,969.52
2022-12-25T02:46:24.235Z,969.42
2022-12-25T02:46:54.424Z,969.42
2022-12-25T02:47:26.114Z,969.32
2022-12-25T02:47:56.472Z,969.32
2022-12-25T02:48:28.174Z,969.52
2022-12-25T02:48:58.901Z,969.52
2022-12-25T02:49:30.042Z,969.52
2022-12-25T02:50:02.264Z,969.52
2022-12-25T02:50:32.046Z,969.52
2022-12-25T02:51:02.705Z,969.52
2022-12-25T02:51:35.111Z,969.52
2022-12-25T02:52:04.431Z,969.52
2022-12-25T02:52:37.737Z,969.52
2022-12-25T02:53:06.465Z,969.32
2022-12-25T02:53:37.479Z,969.32
2022-12-25T02:54:09.169Z,969.42
2022-12-25T02:54:39.445Z,969.42
2022-12-25T02:55:12.345Z,969.42
2022-12-25T02:55:41.757Z,969.42
2022-12-25T02:56:13.135Z,969.52
2022-12-25T02:56:43.440Z,969.52
2022-12-25T02:57:15.176Z,969.42
2022-12-25T02:57:45.524Z,969.42
2022-12-25T02:58:18.038Z,969.32
2022-12-25T02:58:47.506Z,969.32
2022-12-25T02:59:19.219Z,969.42
2022-12-25T02:59:49.428Z,969.42
2022-12-25T03:00:24.697Z,969.42
2022-12-25T03:01:04.421Z,969.42
2022-12-25T03:01:23.769Z,969.22
2022-12-25T03:01:54.063Z,969.22
2022-12-25T03:02:25.177Z,969.22
2022-12-25T03:02:55.527Z,969.22
2022-12-25T03:03:27.342Z,969.32
2022-12-25T03:03:57.441Z,969.32
2022-12-25T03:04:29.241Z,969.32
2022-12-25T03:05:01.663Z,969.32
2022-12-25T03:05:32.375Z,969.22
2022-12-25T03:06:01.771Z,969.22
2022-12-25T03:06:33.078Z,969.32
2022-12-25T03:07:03.645Z,969.11
2022-12-25T03:07:35.191Z,969.11
2022-12-25T03:08:05.456Z,969.32
2022-12-25T03:08:37.020Z,969.32
2022-12-25T03:09:07.990Z,969.42
2022-12-25T03:09:39.083Z,969.42
2022-12-25T03:10:10.480Z,969.42
2022-12-25T03:10:42.300Z,969.42
2022-12-25T03:11:11.469Z,969.52
2022-12-25T03:11:44.011Z,969.52
2022-12-25T03:12:14.045Z,969.42
2022-12-25T03:12:45.015Z,969.42
2022-12-25T03:13:15.560Z,969.22
2022-12-25T03:13:47.160Z,969.22
2022-12-25T03:14:17.523Z,969.42
2022-12-25T03:14:49.023Z,969.42
2022-12-25T03:15:20.278Z,969.22
2022-12-25T03:15:52.176Z,969.22
2022-12-25T03:16:21.568Z,969.52
2022-12-25T03:16:53.217Z,969.52
2022-12-25T03:17:23.453Z,969.42
2022-12-25T03:17:55.025Z,969.42
2022-12-25T03:18:25.539Z,969.52
2022-12-25T03:18:57.136Z,969.52
2022-12-25T03:19:27.481Z,969.42
2022-12-25T03:19:59.161Z,969.42
2022-12-25T03:20:40.388Z,969.72
2022-12-25T03:21:03.139Z,969.72
2022-12-25T03:21:31.518Z,969.52
2022-12-25T03:22:03.011Z,969.52
2022-12-25T03:22:34.196Z,969.42
2022-12-25T03:23:05.133Z,969.32
2022-12-25T03:23:35.452Z,969.32
2022-12-25T03:24:07.017Z,969.52
2022-12-25T03:24:37.457Z,969.52
2022-12-25T03:25:10.456Z,969.42
2022-12-25T03:25:39.412Z,969.42
2022-12-25T03:26:12.293Z,969.22
2022-12-25T03:26:41.416Z,969.22
2022-12-25T03:27:13.267Z,969.52
2022-12-25T03:27:43.394Z,969.52
2022-12-25T03:28:15.202Z,969.32
2022-12-25T03:28:45.641Z,969.32
2022-12-25T03:29:17.224Z,969.52
2022-12-25T03:29:47.462Z,969.52
2022-12-25T03:30:19.936Z,969.42
2022-12-25T03:30:49.545Z,969.42
2022-12-25T03:31:22.278Z,969.42
2022-12-25T03:31:51.434Z,969.42
2022-12-25T03:32:23.144Z,969.52
2022-12-25T03:32:53.759Z,969.52
2022-12-25T03:33:44.497Z,969.52
2022-12-25T03:33:55.417Z,969.52
2022-12-25T03:34:27.123Z,969.42
2022-12-25T03:34:57.422Z,969.42
2022-12-25T03:35:29.505Z,969.32
2022-12-25T03:35:59.931Z,969.32
2022-12-25T03:36:32.099Z,969.42
2022-12-25T03:37:01.417Z,969.42
2022-12-25T03:37:33.348Z,969.32
2022-12-25T03:38:03.543Z,969.32
2022-12-25T03:38:35.932Z,969.32
2022-12-25T03:39:05.433Z,969.52
2022-12-25T03:39:37.168Z,969.52
2022-12-25T03:40:07.823Z,969.22
2022-12-25T03:40:40.275Z,969.22
2022-12-25T03:41:09.515Z,969.32
2022-12-25T03:41:42.173Z,969.32
2022-12-25T03:42:11.470Z,969.52
2022-12-25T03:42:43.415Z,969.52
2022-12-25T03:43:14.226Z,969.52
2022-12-25T03:43:45.206Z,969.52
2022-12-25T03:44:15.399Z,969.22
2022-12-25T03:44:46.996Z,969.22
2022-12-25T03:45:18.955Z,969.52
2022-12-25T03:45:49.234Z,969.52
2022-12-25T03:46:24.562Z,969.52
2022-12-25T03:46:52.057Z,969.52
2022-12-25T03:47:21.420Z,969.42
2022-12-25T03:47:53.127Z,969.42
2022-12-25T03:48:23.450Z,969.62
2022-12-25T03:48:55.028Z,969.62
2022-12-25T03:49:26.009Z,969.32
2022-12-25T03:49:57.048Z,969.32
2022-12-25T03:50:27.874Z,969.42
2022-12-25T03:50:59.113Z,969.42
2022-12-25T03:51:29.439Z,969.52
2022-12-25T03:52:02.787Z,969.52
2022-12-25T03:52:31.520Z,969.32
2022-12-25T03:53:03.192Z,969.32
2022-12-25T03:53:33.721Z,969.32
2022-12-25T03:54:05.182Z,969.52
2022-12-25T03:54:35.729Z,969.52
2022-12-25T03:55:06.814Z,969.22
2022-12-25T03:55:37.475Z,969.22
2022-12-25T03:56:09.350Z,969.11
2022-12-25T03:56:39.404Z,969.11
2022-12-25T03:57:12.268Z,969.22
2022-12-25T03:57:41.647Z,969.22
2022-12-25T03:58:13.100Z,969.42
2022-12-25T03:58:43.408Z,969.42
2022-12-25T03:59:21.028Z,969.42
2022-12-25T03:59:45.742Z,969.42
2022-12-25T04:00:18.683Z,969.11
2022-12-25T04:00:47.830Z,969.11
2022-12-25T04:01:19.491Z,969.22
2022-12-25T04:01:49.692Z,969.22
2022-12-25T04:02:22.335Z,969.22
2022-12-25T04:02:52.215Z,969.22
2022-12-25T04:03:23.232Z,969.22
2022-12-25T04:03:53.808Z,969.22
2022-12-25T04:04:25.228Z,969.22
2022-12-25T04:04:55.674Z,969.22
2022-12-25T04:05:28.549Z,969.22
2022-12-25T04:05:57.924Z,969.22
2022-12-25T04:06:29.196Z,969.42
2022-12-25T04:06:59.485Z,969.42
2022-12-25T04:07:32.195Z,968.91
2022-12-25T04:08:01.715Z,968.91
2022-12-25T04:08:33.251Z,969.32
2022-12-25T04:09:03.644Z,969.22
2022-12-25T04:09:36.071Z,969.22
2022-12-25T04:10:06.299Z,969.22
2022-12-25T04:10:37.175Z,969.22
2022-12-25T04:11:07.630Z,969.22
2022-12-25T04:11:39.284Z,969.22
2022-12-25T04:12:09.514Z,969.32
2022-12-25T04:12:42.372Z,969.32
2022-12-25T04:13:11.602Z,969.22
2022-12-25T04:13:43.448Z,969.22
2022-12-25T04:14:13.896Z,969.22
2022-12-25T04:14:45.269Z,969.22
2022-12-25T04:15:16.759Z,969.11
2022-12-25T04:15:47.386Z,969.11
2022-12-25T04:16:18.091Z,969.22
2022-12-25T04:16:49.303Z,969.22
2022-12-25T04:17:19.465Z,969.11
2022-12-25T04:17:52.062Z,969.11
2022-12-25T04:18:21.447Z,969.11
2022-12-25T04:18:53.885Z,969.11
2022-12-25T04:19:23.475Z,969.11
2022-12-25T04:19:55.180Z,969.11
2022-12-25T04:20:26.330Z,969.22
2022-12-25T04:20:57.122Z,969.22
2022-12-25T04:21:27.542Z,969.11
2022-12-25T04:21:59.093Z,969.11
2022-12-25T04:22:29.490Z,968.91
2022-12-25T04:23:02.052Z,968.91
2022-12-25T04:23:31.468Z,969.01
2022-12-25T04:24:03.089Z,969.01
2022-12-25T04:24:33.879Z,969.01
2022-12-25T04:25:05.985Z,969.01
2022-12-25T04:25:35.497Z,969.01
2022-12-25T04:26:07.004Z,968.91
2022-12-25T04:26:37.570Z,968.91
2022-12-25T04:27:09.100Z,969.01
2022-12-25T04:27:39.456Z,969.01
2022-12-25T04:28:13.134Z,969.01
2022-12-25T04:28:41.494Z,969.01
2022-12-25T04:29:13.048Z,968.91
2022-12-25T04:29:44.241Z,968.91
2022-12-25T04:30:15.890Z,969.01
2022-12-25T04:30:45.684Z,969.01
2022-12-25T04:31:17.127Z,968.91
2022-12-25T04:31:47.435Z,968.91
2022-12-25T04:32:19.662Z,968.91
2022-12-25T04:32:49.481Z,968.91
2022-12-25T04:33:22.094Z,969.11
2022-12-25T04:33:51.468Z,969.11
2022-12-25T04:34:23.107Z,968.91
2022-12-25T04:34:53.737Z,968.91
2022-12-25T04:35:25.439Z,968.91
2022-12-25T04:35:55.416Z,968.91
2022-12-25T04:36:27.292Z,968.81
2022-12-25T04:36:57.400Z,968.81
2022-12-25T04:37:29.026Z,968.71
2022-12-25T04:37:59.439Z,968.71
2022-12-25T04:38:32.138Z,968.81
2022-12-25T04:39:02.994Z,968.81
2022-12-25T04:39:33.131Z,968.81
2022-12-25T04:40:03.967Z,968.91
2022-12-25T04:40:40.022Z,968.91
2022-12-25T04:41:05.469Z,968.81
2022-12-25T04:41:37.039Z,968.81
2022-12-25T04:42:07.415Z,968.91
2022-12-25T04:42:39.181Z,968.91
2022-12-25T04:43:10.320Z,968.81
2022-12-25T04:43:42.119Z,968.81
2022-12-25T04:44:11.464Z,968.91
2022-12-25T04:44:43.235Z,968.91
2022-12-25T04:45:15.139Z,968.91
2022-12-25T04:45:45.826Z,968.91
2022-12-25T04:46:15.453Z,968.91
2022-12-25T04:46:47.055Z,968.91
2022-12-25T04:47:17.442Z,968.81
2022-12-25T04:47:49.019Z,968.81
2022-12-25T04:48:19.416Z,968.81
2022-12-25T04:48:52.030Z,968.81
2022-12-25T04:49:22.106Z,968.71
2022-12-25T04:49:53.468Z,968.71
2022-12-25T04:50:23.915Z,968.81
2022-12-25T04:50:55.046Z,968.81
2022-12-25T04:51:25.496Z,968.71
2022-12-25T04:51:57.124Z,968.71
2022-12-25T04:52:27.391Z,968.91
2022-12-25T04:52:59.026Z,968.91
2022-12-25T04:53:29.440Z,968.81
2022-12-25T04:54:02.200Z,968.81
2022-12-25T04:54:31.409Z,969.01
2022-12-25T04:55:02.937Z,969.01
2022-12-25T04:55:33.714Z,968.71
2022-12-25T04:56:05.227Z,968.71
2022-12-25T04:56:43.428Z,968.71
2022-12-25T04:57:07.053Z,968.71
2022-12-25T04:57:37.451Z,968.71
2022-12-25T04:58:09.037Z,968.61
2022-12-25T04:58:39.443Z,968.61
2022-12-25T04:59:12.581Z,968.61
2022-12-25T04:59:41.401Z,968.61
2022-12-25T05:00:14.869Z,968.71
2022-12-25T05:00:53.255Z,968.71
2022-12-25T05:01:15.219Z,968.71
2022-12-25T05:01:45.498Z,968.71
2022-12-25T05:02:17.090Z,968.54
2022-12-25T05:02:47.588Z,968.54
2022-12-25T05:03:19.345Z,968.61
2022-12-25T05:03:49.875Z,968.61
2022-12-25T05:04:22.180Z,968.44
2022-12-25T05:04:51.533Z,968.44
2022-12-25T05:05:23.546Z,968.61
2022-12-25T05:05:53.738Z,968.61
2022-12-25T05:06:25.100Z,968.71
2022-12-25T05:06:55.531Z,968.71
2022-12-25T05:07:27.273Z,968.81
2022-12-25T05:07:57.451Z,968.81
2022-12-25T05:08:29.010Z,968.81
2022-12-25T05:08:59.545Z,968.81
2022-12-25T05:09:32.045Z,968.71
2022-12-25T05:10:02.985Z,968.71
2022-12-25T05:10:33.164Z,968.54
2022-12-25T05:11:03.592Z,968.81
2022-12-25T05:11:35.208Z,968.81
2022-12-25T05:12:05.464Z,968.91
2022-12-25T05:12:37.698Z,968.91
2022-12-25T05:13:07.461Z,968.71
2022-12-25T05:13:45.704Z,968.71
2022-12-25T05:13:54.824Z,968.71
2022-12-25T05:14:33.686Z,968.71
2022-12-25T05:14:41.402Z,968.61
2022-12-25T05:15:14.080Z,968.61
2022-12-25T05:15:42.721Z,968.61
2022-12-25T05:16:16.003Z,968.81
2022-12-25T05:16:44.910Z,968.81
2022-12-25T05:17:16.122Z,968.91
2022-12-25T05:17:46.432Z,968.91
2022-12-25T05:18:18.002Z,969.01
2022-12-25T05:18:48.432Z,969.01
2022-12-25T05:19:21.116Z,968.81
2022-12-25T05:19:51.393Z,968.81
2022-12-25T05:20:22.560Z,968.71
2022-12-25T05:20:52.432Z,968.71
2022-12-25T05:21:24.001Z,968.61
2022-12-25T05:21:54.454Z,968.61
2022-12-25T05:22:26.177Z,969.01
2022-12-25T05:22:56.482Z,969.01
2022-12-25T05:23:28.500Z,968.91
2022-12-25T05:23:58.550Z,968.91
2022-12-25T05:24:30.078Z,968.91
2022-12-25T05:25:02.134Z,968.91
2022-12-25T05:25:32.075Z,968.81
2022-12-25T05:26:02.650Z,968.81
2022-12-25T05:26:34.409Z,969.01
2022-12-25T05:27:04.444Z,969.01
2022-12-25T05:27:36.065Z,969.01
2022-12-25T05:28:06.413Z,968.81
2022-12-25T05:28:38.107Z,968.81
2022-12-25T05:29:08.453Z,968.91
2022-12-25T05:29:40.047Z,968.91
2022-12-25T05:30:12.568Z,968.91
2022-12-25T05:30:42.325Z,968.91
2022-12-25T05:31:12.682Z,968.81
2022-12-25T05:31:44.081Z,968.81
2022-12-25T05:32:14.400Z,969.11
2022-12-25T05:32:46.036Z,969.11
2022-12-25T05:33:16.443Z,969.01
2022-12-25T05:33:48.197Z,969.01
2022-12-25T05:34:18.434Z,969.01
2022-12-25T05:34:50.114Z,969.01
2022-12-25T05:35:21.934Z,968.91
2022-12-25T05:35:52.170Z,968.91
2022-12-25T05:36:22.427Z,968.91
2022-12-25T05:36:54.313Z,968.91
2022-12-25T05:37:24.442Z,968.81
2022-12-25T05:37:56.155Z,968.81
2022-12-25T05:38:26.408Z,968.81
2022-12-25T05:38:58.030Z,968.81
2022-12-25T05:39:28.442Z,968.71
2022-12-25T05:40:00.456Z,968.71
2022-12-25T05:40:38.968Z,968.91
2022-12-25T05:41:02.222Z,968.91
2022-12-25T05:41:34.800Z,968.61
2022-12-25T05:42:04.328Z,968.71
2022-12-25T05:42:34.430Z,968.71
2022-12-25T05:43:06.135Z,969.01
2022-12-25T05:43:36.879Z,969.01
2022-12-25T05:44:09.230Z,968.61
2022-12-25T05:44:38.634Z,968.61
2022-12-25T05:45:11.373Z,968.81
2022-12-25T05:45:41.450Z,968.81
2022-12-25T05:46:12.210Z,969.01
2022-12-25T05:46:42.503Z,969.01
2022-12-25T05:47:15.779Z,968.71
2022-12-25T05:47:44.434Z,968.71
2022-12-25T05:48:16.148Z,968.91
2022-12-25T05:48:46.586Z,968.91
2022-12-25T05:49:18.129Z,968.91
2022-12-25T05:49:48.460Z,968.91
2022-12-25T05:50:20.790Z,968.71
2022-12-25T05:50:51.428Z,968.71
2022-12-25T05:51:22.276Z,968.91
2022-12-25T05:51:52.510Z,968.91
2022-12-25T05:52:24.033Z,969.11
2022-12-25T05:52:56.195Z,969.11
2022-12-25T05:53:26.018Z,968.71
2022-12-25T05:53:56.409Z,968.71
2022-12-25T05:54:28.127Z,968.91
2022-12-25T05:54:58.926Z,968.91
2022-12-25T05:55:29.385Z,968.91
2022-12-25T05:56:01.453Z,968.91
2022-12-25T05:56:32.154Z,969.01
2022-12-25T05:57:03.400Z,969.01
2022-12-25T05:57:34.592Z,969.01
2022-12-25T05:58:04.473Z,969.01
2022-12-25T05:58:36.025Z,969.01
2022-12-25T05:59:06.427Z,969.01
2022-12-25T05:59:38.019Z,969.01
2022-12-25T06:00:09.830Z,969.01
2022-12-25T06:00:48.855Z,969.01
2022-12-25T06:01:11.441Z,969.01
2022-12-25T06:01:43.223Z,969.01
2022-12-25T06:02:12.872Z,968.91
2022-12-25T06:02:44.419Z,968.91
2022-12-25T06:03:14.782Z,968.71
2022-12-25T06:03:46.681Z,968.71
2022-12-25T06:04:16.513Z,968.61
2022-12-25T06:04:48.037Z,968.61
2022-12-25T06:05:19.392Z,968.81
2022-12-25T06:05:50.117Z,968.81
2022-12-25T06:06:22.221Z,968.91
2022-12-25T06:06:52.238Z,968.91
2022-12-25T06:07:22.435Z,969.01
2022-12-25T06:07:55.176Z,969.01
2022-12-25T06:08:24.483Z,968.91
2022-12-25T06:08:56.591Z,968.91
2022-12-25T06:09:26.433Z,968.81
2022-12-25T06:09:59.048Z,968.81
2022-12-25T06:10:29.500Z,969.01
2022-12-25T06:11:00.754Z,969.01
2022-12-25T06:11:31.385Z,968.81
2022-12-25T06:12:02.172Z,968.81
2022-12-25T06:12:32.435Z,968.81
2022-12-25T06:13:04.088Z,968.91
2022-12-25T06:13:34.896Z,968.91
2022-12-25T06:14:06.067Z,968.91
2022-12-25T06:14:36.442Z,968.91
2022-12-25T06:15:09.522Z,968.91
2022-12-25T06:15:38.423Z,968.91
2022-12-25T06:16:10.142Z,968.91
2022-12-25T06:16:41.559Z,968.91
2022-12-25T06:17:12.972Z,968.71
2022-12-25T06:17:42.776Z,968.71
2022-12-25T06:18:15.697Z,968.71
2022-12-25T06:18:44.434Z,968.71
2022-12-25T06:19:16.122Z,968.91
2022-12-25T06:19:46.413Z,968.91
2022-12-25T06:20:18.691Z,969.01
2022-12-25T06:20:49.262Z,969.01
2022-12-25T06:21:20.007Z,969.11
2022-12-25T06:21:51.485Z,969.11
2022-12-25T06:22:22.151Z,968.91
2022-12-25T06:22:52.475Z,968.91
2022-12-25T06:23:24.090Z,968.91
2022-12-25T06:24:03.145Z,968.91
2022-12-25T06:24:26.140Z,969.11
2022-12-25T06:24:56.467Z,969.11
2022-12-25T06:25:28.601Z,968.81
2022-12-25T06:25:58.443Z,968.81